US-0090 weather

Davison Restricted Landing Area
Minork, Illinois, United States

Public forecast

Using degrees Fahrenheit for public forecast. Weather courtesy of forecast.io.

Closest aviation weather report (METAR) to Davison Restricted Landing Area

Closest report is Marshall County Airport, 13.3 nm (24.6 km) WNW. Retrieved 2019/12/07 06:35 UTC (0 seconds ago):

KC75 070635Z AUTO 00000KT 10SM CLR M06/M07 A3038 RMK AO2 T10621071

Closest aviation forecast (TAF) to Davison Restricted Landing Area

Closest forecast is Central Illinois Regional Airport at Bloomington-Normal, 28.0 nm (51.9 km) SSE. Retrieved 2019/12/07 06:24 UTC (0 seconds ago):

TAF KBMI 070520Z 0706/0806 VRB05KT P6SM SKC FM071500 18010KT P6SM SCT250